Counts Cross Roads, Kentucky
Current Conditions -  °F | °C
As of 6:50 AM on Monday 22 Dec 2014 (Local Time) from KSYM Reporting Station
Overcast Overcast  
Wind Chill: 34°   Ceiling: 3400
Heat Index: 37°   Visibility: 10mi
Dew Point: 28°   Wind: 5mph
Humidity: 70%   Direction: 110°ESE
Pressure: 30.04"   Gusts: NA
Location:  38.3543°N, 83.1837°W
Report Text: KSYM 221150Z AUTO 11004KT 10SM BKN034 OVC055 03/M02 A3004 RMK AO2
Loading
Personal Weather Stations






























Interactive Weather Map New forecast layout! Learn more

10-Day Weather Forecast

Advertisements
Track Severe Weather on mobile